Time;durP1;ratioP1;P1;durP2;ratioP2;P2;SDS_P1;SDS_P2;PMS_P1;PMS_P2;Temp;Humidity;BMP_temperature;BMP_pressure;BME280_temperature;BME280_humidity;BME280_pressure;Samples;Min_cycle;Max_cycle;Signal;HPM_P1;HPM_P2
2022/03/04 00:01:47;;;;;;;27.07;12.93;;;;;;;;;;5096755;28;20810;-69
2022/03/04 00:04:14;;;;;;;21.27;11.67;;;;;;;;;;5096405;28;20454;-69
2022/03/04 00:06:41;;;;;;;18.10;10.60;;;;;;;;;;5096658;28;20477;-69
2022/03/04 00:09:10;;;;;;;23.67;13.10;;;;;;;;;;5096822;28;20454;-69
2022/03/04 00:11:37;;;;;;;20.40;12.10;;;;;;;;;;5096622;28;20497;-69
2022/03/04 00:14:04;;;;;;;24.73;10.37;;;;;;;;;;5096613;28;20455;-69
2022/03/04 00:16:31;;;;;;;30.67;14.03;;;;;;;;;;5096634;28;20447;-69
2022/03/04 00:19:09;;;;;;;29.30;12.80;;;;;;;;;;5096449;28;20500;-70
2022/03/04 00:21:36;;;;;;;29.90;13.23;;;;;;;;;;5096628;28;20456;-70
2022/03/04 00:24:03;;;;;;;22.00;11.83;;;;;;;;;;5096438;28;20453;-70
2022/03/04 00:26:32;;;;;;;28.33;13.20;;;;;;;;;;5096484;28;20457;-70
2022/03/04 00:28:59;;;;;;;23.00;12.30;;;;;;;;;;5096594;28;20442;-69
2022/03/04 00:31:26;;;;;;;28.93;11.57;;;;;;;;;;5095764;28;20493;-70
2022/03/04 00:33:53;;;;;;;22.47;11.40;;;;;;;;;;5096193;28;20457;-69
2022/03/04 00:36:22;;;;;;;18.20;10.97;;;;;;;;;;5095862;28;20450;-69
2022/03/04 00:38:49;;;;;;;31.67;11.67;;;;;;;;;;5096320;28;20979;-69
2022/03/04 00:41:17;;;;;;;28.53;13.37;;;;;;;;;;5096260;28;20443;-69
2022/03/04 00:43:46;;;;;;;22.00;11.27;;;;;;;;;;5095930;28;20456;-69
2022/03/04 00:46:13;;;;;;;20.63;11.20;;;;;;;;;;5096160;28;20457;-70
2022/03/04 00:48:40;;;;;;;21.33;11.90;;;;;;;;;;5095998;28;20488;-69
2022/03/04 00:51:07;;;;;;;23.10;12.20;;;;;;;;;;5096072;28;20490;-69
2022/03/04 00:53:34;;;;;;;17.17;11.27;;;;;;;;;;5095826;28;20457;-70
2022/03/04 00:56:02;;;;;;;24.30;12.20;;;;;;;;;;5096084;28;20442;-69
2022/03/04 00:58:29;;;;;;;29.80;12.37;;;;;;;;;;5095984;28;20466;-69
2022/03/04 01:00:57;;;;;;;26.67;12.10;;;;;;;;;;5095879;28;20442;-69
2022/03/04 01:03:24;;;;;;;23.00;11.40;;;;;;;;;;5095382;28;20465;-69
2022/03/04 01:05:51;;;;;;;17.57;10.27;;;;;;;;;;5095141;28;20453;-69
2022/03/04 01:08:19;;;;;;;21.93;11.47;;;;;;;;;;5095935;28;20466;-69
2022/03/04 01:10:46;;;;;;;21.17;11.73;;;;;;;;;;5095403;28;20514;-69
2022/03/04 01:13:13;;;;;;;18.37;11.00;;;;;;;;;;5095811;28;20806;-69
2022/03/04 01:15:40;;;;;;;18.80;10.10;;;;;;;;;;5095365;28;20458;-70
2022/03/04 01:18:09;;;;;;;19.10;12.63;;;;;;;;;;5095773;28;20514;-69
2022/03/04 01:20:36;;;;;;;23.13;9.77;;;;;;;;;;5095824;28;20439;-69
2022/03/04 01:23:03;;;;;;;20.20;10.93;;;;;;;;;;5095480;28;20458;-69
2022/03/04 01:25:30;;;;;;;24.50;12.30;;;;;;;;;;5095365;28;20455;-69
2022/03/04 01:27:57;;;;;;;25.30;11.80;;;;;;;;;;5095383;28;20466;-69
2022/03/04 01:30:24;;;;;;;21.37;10.60;;;;;;;;;;5095332;28;20474;-69
2022/03/04 01:32:52;;;;;;;17.83;9.83;;;;;;;;;;5095364;28;20862;-69
2022/03/04 01:35:20;;;;;;;22.43;11.23;;;;;;;;;;5095112;28;20458;-70
2022/03/04 01:37:47;;;;;;;22.03;10.90;;;;;;;;;;5095160;28;20474;-69
2022/03/04 01:40:14;;;;;;;27.83;11.93;;;;;;;;;;5095234;28;20950;-70
2022/03/04 01:42:42;;;;;;;21.10;10.07;;;;;;;;;;5095165;28;20451;-69
2022/03/04 01:45:10;;;;;;;34.63;15.50;;;;;;;;;;5095070;28;20858;-70
2022/03/04 01:47:40;;;;;;;26.90;12.30;;;;;;;;;;5094818;28;20482;-70
2022/03/04 01:50:08;;;;;;;20.77;11.33;;;;;;;;;;5094977;28;20955;-70
2022/03/04 01:52:36;;;;;;;26.27;13.67;;;;;;;;;;5094963;28;20453;-69
2022/03/04 01:55:03;;;;;;;23.07;13.00;;;;;;;;;;5094537;28;20447;-70
2022/03/04 01:57:30;;;;;;;26.80;14.67;;;;;;;;;;5094794;28;20474;-69
2022/03/04 01:59:57;;;;;;;29.30;16.00;;;;;;;;;;5094895;28;20458;-70
2022/03/04 02:02:24;;;;;;;21.63;14.20;;;;;;;;;;5094468;28;20818;-69
2022/03/04 02:04:52;;;;;;;21.53;12.47;;;;;;;;;;5094720;28;20446;-69
2022/03/04 02:07:19;;;;;;;24.70;13.70;;;;;;;;;;5094534;28;20474;-70
2022/03/04 02:09:47;;;;;;;29.10;14.00;;;;;;;;;;5094573;28;20455;-69
2022/03/04 02:12:15;;;;;;;25.93;13.10;;;;;;;;;;5093990;28;20577;-70
2022/03/04 02:14:42;;;;;;;24.67;11.90;;;;;;;;;;5094316;28;20971;-70
2022/03/04 02:17:09;;;;;;;25.27;11.00;;;;;;;;;;5094431;28;20471;-70
2022/03/04 02:19:36;;;;;;;28.97;13.30;;;;;;;;;;5094458;28;20457;-69
2022/03/04 02:22:07;;;;;;;24.00;11.63;;;;;;;;;;5093441;28;20439;-70
2022/03/04 02:24:34;;;;;;;21.53;11.70;;;;;;;;;;5094225;28;20466;-70
2022/03/04 02:27:02;;;;;;;23.70;11.80;;;;;;;;;;5094107;28;20468;-70
2022/03/04 02:29:30;;;;;;;33.03;15.57;;;;;;;;;;5094428;28;20513;-70
2022/03/04 02:31:57;;;;;;;28.10;14.80;;;;;;;;;;5094072;28;20490;-70
2022/03/04 02:34:24;;;;;;;27.60;12.90;;;;;;;;;;5093947;28;20450;-70
2022/03/04 02:36:52;;;;;;;29.13;15.03;;;;;;;;;;5094040;28;20467;-70
2022/03/04 02:39:20;;;;;;;28.83;14.90;;;;;;;;;;5094272;28;20454;-70
2022/03/04 02:41:47;;;;;;;28.33;13.67;;;;;;;;;;5093904;28;20446;-70
2022/03/04 02:44:15;;;;;;;21.83;13.20;;;;;;;;;;5093845;28;20454;-70
2022/03/04 02:46:42;;;;;;;19.57;12.50;;;;;;;;;;5093787;28;20474;-70
2022/03/04 02:49:10;;;;;;;29.07;14.50;;;;;;;;;;5093757;28;20501;-70
2022/03/04 02:51:37;;;;;;;20.10;12.70;;;;;;;;;;5093901;28;20491;-70
2022/03/04 02:54:05;;;;;;;38.37;13.67;;;;;;;;;;5093473;28;20455;-70
2022/03/04 02:56:33;;;;;;;26.23;14.03;;;;;;;;;;5093708;28;20450;-69
2022/03/04 02:59:00;;;;;;;29.13;13.93;;;;;;;;;;5093777;28;20459;-69
2022/03/04 03:01:27;;;;;;;30.27;12.70;;;;;;;;;;5093773;28;20458;-70
2022/03/04 03:03:55;;;;;;;22.97;12.97;;;;;;;;;;5092884;28;20974;-70
2022/03/04 03:06:22;;;;;;;31.03;15.23;;;;;;;;;;5093378;28;20446;-70
2022/03/04 03:08:49;;;;;;;30.93;14.37;;;;;;;;;;5093493;28;20458;-70
2022/03/04 03:11:16;;;;;;;33.70;15.10;;;;;;;;;;5093567;28;20998;-69
2022/03/04 03:13:44;;;;;;;26.60;13.83;;;;;;;;;;5093553;28;20529;-70
2022/03/04 03:16:11;;;;;;;23.20;12.97;;;;;;;;;;5093585;28;20454;-70
2022/03/04 03:18:39;;;;;;;30.70;12.07;;;;;;;;;;5093287;28;20463;-70
2022/03/04 03:21:06;;;;;;;24.30;9.90;;;;;;;;;;5093429;28;20928;-70
2022/03/04 03:23:33;;;;;;;20.13;9.43;;;;;;;;;;5093130;28;20446;-70
2022/03/04 03:26:00;;;;;;;18.00;10.67;;;;;;;;;;5093183;28;20462;-69
2022/03/04 03:28:27;;;;;;;26.47;10.97;;;;;;;;;;5093189;28;20475;-69
2022/03/04 03:30:56;;;;;;;22.10;11.60;;;;;;;;;;5093166;28;20494;-69
2022/03/04 03:33:23;;;;;;;26.93;11.20;;;;;;;;;;5093115;28;20450;-70
2022/03/04 03:35:54;;;;;;;15.87;10.47;;;;;;;;;;5092522;28;20449;-69
2022/03/04 03:38:21;;;;;;;22.13;10.10;;;;;;;;;;5093279;28;20470;-69
2022/03/04 03:40:48;;;;;;;23.60;11.47;;;;;;;;;;5092950;28;20958;-69
2022/03/04 03:43:15;;;;;;;22.53;12.40;;;;;;;;;;5093131;28;20450;-69
2022/03/04 03:45:43;;;;;;;18.07;10.37;;;;;;;;;;5092850;28;20446;-70
2022/03/04 03:48:11;;;;;;;18.70;9.90;;;;;;;;;;5092962;28;20517;-69
2022/03/04 03:50:39;;;;;;;22.37;11.70;;;;;;;;;;5092983;28;20451;-70
2022/03/04 03:53:06;;;;;;;21.33;10.87;;;;;;;;;;5093124;28;20470;-70
2022/03/04 03:55:33;;;;;;;28.20;12.80;;;;;;;;;;5092819;28;20450;-69
2022/03/04 03:58:00;;;;;;;14.87;10.13;;;;;;;;;;5093084;28;20930;-70
2022/03/04 04:00:27;;;;;;;28.33;13.70;;;;;;;;;;5093052;28;20520;-69
2022/03/04 04:02:54;;;;;;;23.20;11.73;;;;;;;;;;5092632;28;20897;-69
2022/03/04 04:05:23;;;;;;;26.70;10.87;;;;;;;;;;5092874;28;20443;-69
2022/03/04 04:07:50;;;;;;;27.03;11.77;;;;;;;;;;5092817;28;20470;-69
2022/03/04 04:10:17;;;;;;;24.90;11.80;;;;;;;;;;5092876;28;20962;-69
2022/03/04 04:12:44;;;;;;;18.37;11.07;;;;;;;;;;5092727;28;20845;-70
2022/03/04 04:15:11;;;;;;;23.77;11.83;;;;;;;;;;5092647;28;20458;-69
2022/03/04 04:17:38;;;;;;;23.77;11.70;;;;;;;;;;5092692;28;20478;-69
2022/03/04 04:20:06;;;;;;;39.63;12.00;;;;;;;;;;5092690;28;20462;-69
2022/03/04 04:22:34;;;;;;;23.30;11.57;;;;;;;;;;5092796;28;20446;-69
2022/03/04 04:25:01;;;;;;;26.73;12.60;;;;;;;;;;5092412;28;20446;-69
2022/03/04 04:27:29;;;;;;;26.80;12.77;;;;;;;;;;5092579;28;20828;-70
2022/03/04 04:29:56;;;;;;;18.37;11.40;;;;;;;;;;5092693;28;20459;-69
2022/03/04 04:32:23;;;;;;;21.77;12.17;;;;;;;;;;5092614;28;20490;-70
2022/03/04 04:34:50;;;;;;;24.77;9.77;;;;;;;;;;5092412;28;20474;-70
2022/03/04 04:37:17;;;;;;;21.43;10.70;;;;;;;;;;5092882;28;20471;-69
2022/03/04 04:39:45;;;;;;;23.97;11.40;;;;;;;;;;5092479;28;20892;-70
2022/03/04 04:42:14;;;;;;;23.27;11.17;;;;;;;;;;5092716;28;20447;-70
2022/03/04 04:44:41;;;;;;;19.00;10.83;;;;;;;;;;5093662;28;20451;-70
2022/03/04 04:47:08;;;;;;;15.93;8.60;;;;;;;;;;5096026;28;20508;-70
2022/03/04 04:49:37;;;;;;;27.57;12.33;;;;;;;;;;5096657;28;20819;-69
2022/03/04 04:52:04;;;;;;;23.93;11.53;;;;;;;;;;5095916;28;20539;-70
2022/03/04 04:54:32;;;;;;;22.50;10.20;;;;;;;;;;5095984;28;20864;-70
2022/03/04 04:57:00;;;;;;;21.20;11.83;;;;;;;;;;5096022;28;20467;-70
2022/03/04 04:59:27;;;;;;;24.43;11.87;;;;;;;;;;5095838;28;20446;-69
2022/03/04 05:01:54;;;;;;;19.63;10.17;;;;;;;;;;5095978;28;20455;-69
2022/03/04 05:04:21;;;;;;;23.37;11.57;;;;;;;;;;5095240;28;20446;-71
2022/03/04 05:06:48;;;;;;;25.97;11.83;;;;;;;;;;5095305;28;20866;-69
2022/03/04 05:09:15;;;;;;;27.77;14.70;;;;;;;;;;5095969;28;20469;-70
2022/03/04 05:11:43;;;;;;;20.37;10.17;;;;;;;;;;5095675;28;20868;-70
2022/03/04 05:14:11;;;;;;;18.67;11.00;;;;;;;;;;5095664;28;20454;-70
2022/03/04 05:16:38;;;;;;;26.10;11.57;;;;;;;;;;5095502;28;20458;-70
2022/03/04 05:19:05;;;;;;;39.13;12.90;;;;;;;;;;5095869;28;20447;-70
2022/03/04 05:21:32;;;;;;;32.27;14.40;;;;;;;;;;5095672;28;20450;-70
2022/03/04 05:23:59;;;;;;;26.10;12.97;;;;;;;;;;5095277;28;20458;-69
2022/03/04 05:26:27;;;;;;;24.00;12.50;;;;;;;;;;5095579;28;20447;-69
2022/03/04 05:28:54;;;;;;;25.17;13.43;;;;;;;;;;5095577;28;20479;-69
2022/03/04 05:31:22;;;;;;;23.90;12.97;;;;;;;;;;5095516;28;20816;-69
2022/03/04 05:33:50;;;;;;;29.30;13.50;;;;;;;;;;5095079;28;20446;-70
2022/03/04 05:36:17;;;;;;;24.33;13.77;;;;;;;;;;5095104;28;20454;-69
2022/03/04 05:38:44;;;;;;;27.67;12.87;;;;;;;;;;5095289;28;20467;-69
2022/03/04 05:41:11;;;;;;;28.63;12.80;;;;;;;;;;5094970;28;20954;-69
2022/03/04 05:43:39;;;;;;;24.10;11.60;;;;;;;;;;5094913;28;20451;-69
2022/03/04 05:46:06;;;;;;;33.80;15.70;;;;;;;;;;5094876;28;20503;-69
2022/03/04 05:48:35;;;;;;;34.70;15.07;;;;;;;;;;5094819;28;20486;-69
2022/03/04 05:51:03;;;;;;;27.63;14.93;;;;;;;;;;5094958;28;20479;-69
2022/03/04 05:53:30;;;;;;;30.60;12.60;;;;;;;;;;5094666;28;20535;-69
2022/03/04 05:55:57;;;;;;;31.43;14.00;;;;;;;;;;5093621;28;20447;-69
2022/03/04 05:58:24;;;;;;;28.90;15.40;;;;;;;;;;5094950;28;20971;-69
2022/03/04 06:00:51;;;;;;;29.80;16.07;;;;;;;;;;5094740;28;20445;-69
2022/03/04 06:03:19;;;;;;;28.50;14.77;;;;;;;;;;5094475;28;20446;-69
2022/03/04 06:05:47;;;;;;;29.30;16.53;;;;;;;;;;5094448;28;20943;-69
2022/03/04 06:08:15;;;;;;;31.53;14.70;;;;;;;;;;5094519;28;20472;-69
2022/03/04 06:10:42;;;;;;;26.53;14.50;;;;;;;;;;5094565;28;20455;-69
2022/03/04 06:13:09;;;;;;;30.80;14.73;;;;;;;;;;5094510;28;20493;-70
2022/03/04 06:15:36;;;;;;;30.47;13.50;;;;;;;;;;5094223;28;20454;-69
2022/03/04 06:18:03;;;;;;;31.63;15.53;;;;;;;;;;5094643;28;20638;-69
2022/03/04 06:20:31;;;;;;;26.47;13.07;;;;;;;;;;5094488;28;20450;-69
2022/03/04 06:22:59;;;;;;;27.33;13.10;;;;;;;;;;5094390;28;20442;-69
2022/03/04 06:25:26;;;;;;;19.47;11.43;;;;;;;;;;5094201;28;20486;-69
2022/03/04 06:27:55;;;;;;;33.93;15.07;;;;;;;;;;5094091;28;20478;-70
2022/03/04 06:30:22;;;;;;;41.17;15.83;;;;;;;;;;5094245;28;20494;-69
2022/03/04 06:32:49;;;;;;;26.60;15.67;;;;;;;;;;5094137;28;20999;-70
2022/03/04 06:35:16;;;;;;;24.70;14.93;;;;;;;;;;5094138;28;20444;-69
2022/03/04 06:37:43;;;;;;;32.30;14.70;;;;;;;;;;5093957;28;20840;-70
2022/03/04 06:40:12;;;;;;;25.23;13.70;;;;;;;;;;5094367;28;20454;-69
2022/03/04 06:42:42;;;;;;;31.50;15.20;;;;;;;;;;5093976;28;20815;-70
2022/03/04 06:45:09;;;;;;;25.27;15.30;;;;;;;;;;5093899;28;20450;-70
2022/03/04 06:47:37;;;;;;;27.23;14.63;;;;;;;;;;5093691;28;20516;-69
2022/03/04 06:50:05;;;;;;;24.67;14.17;;;;;;;;;;5093936;28;20463;-70
2022/03/04 06:52:32;;;;;;;27.57;15.33;;;;;;;;;;5093900;28;20486;-70
2022/03/04 06:54:59;;;;;;;25.43;14.50;;;;;;;;;;5093418;28;20959;-70
2022/03/04 06:57:27;;;;;;;35.87;16.33;;;;;;;;;;5093793;28;20503;-70
2022/03/04 06:59:54;;;;;;;22.57;14.57;;;;;;;;;;5093855;28;20461;-70
2022/03/04 07:02:22;;;;;;;24.03;15.10;;;;;;;;;;5093865;28;20442;-70
2022/03/04 07:04:49;;;;;;;21.83;15.67;;;;;;;;;;5093060;28;20924;-70
2022/03/04 07:07:16;;;;;;;30.50;16.83;;;;;;;;;;5093275;28;20519;-70
2022/03/04 07:09:43;;;;;;;26.27;15.93;;;;;;;;;;5093514;28;20447;-70
2022/03/04 07:12:11;;;;;;;27.70;16.77;;;;;;;;;;5093234;28;21010;-70
2022/03/04 07:14:39;;;;;;;25.50;15.80;;;;;;;;;;5093421;28;20439;-70
2022/03/04 07:17:06;;;;;;;27.10;17.10;;;;;;;;;;5093047;28;20851;-70
2022/03/04 07:19:33;;;;;;;28.50;17.30;;;;;;;;;;5093426;28;20451;-70
2022/03/04 07:22:00;;;;;;;29.43;16.50;;;;;;;;;;5093305;28;20446;-70
2022/03/04 07:24:27;;;;;;;27.00;15.27;;;;;;;;;;5093190;28;20446;-70
2022/03/04 07:26:54;;;;;;;27.70;15.23;;;;;;;;;;5093209;28;21021;-69
2022/03/04 07:29:22;;;;;;;26.60;14.73;;;;;;;;;;5093433;28;20935;-69
2022/03/04 07:31:51;;;;;;;19.70;13.20;;;;;;;;;;5093195;28;20451;-69
2022/03/04 07:34:18;;;;;;;33.50;15.73;;;;;;;;;;5093315;28;20457;-69
2022/03/04 07:36:45;;;;;;;22.67;13.60;;;;;;;;;;5093012;28;20470;-69
2022/03/04 07:39:12;;;;;;;20.37;12.50;;;;;;;;;;5093264;28;20462;-69
2022/03/04 07:41:39;;;;;;;30.67;14.67;;;;;;;;;;5092861;28;20450;-70
2022/03/04 07:44:07;;;;;;;22.87;12.37;;;;;;;;;;5093047;28;20927;-70
2022/03/04 07:46:34;;;;;;;26.50;13.63;;;;;;;;;;5092750;28;20830;-70
2022/03/04 07:49:03;;;;;;;29.37;12.93;;;;;;;;;;5092980;28;20467;-70
2022/03/04 07:51:30;;;;;;;33.23;15.53;;;;;;;;;;5093238;28;20457;-70
2022/03/04 07:53:57;;;;;;;25.13;13.90;;;;;;;;;;5092792;28;20490;-70
2022/03/04 07:56:24;;;;;;;25.70;14.87;;;;;;;;;;5093106;28;20447;-70
2022/03/04 07:58:51;;;;;;;28.93;14.50;;;;;;;;;;5093002;28;20450;-70
2022/03/04 08:01:19;;;;;;;29.40;14.60;;;;;;;;;;5092960;28;20446;-70
2022/03/04 08:03:46;;;;;;;23.70;12.17;;;;;;;;;;5092654;28;20500;-71
2022/03/04 08:06:15;;;;;;;35.23;17.70;;;;;;;;;;5092810;28;20454;-70
2022/03/04 08:08:42;;;;;;;27.53;15.80;;;;;;;;;;5092790;28;20971;-70
2022/03/04 08:11:09;;;;;;;51.37;26.40;;;;;;;;;;5092978;28;20455;-70
2022/03/04 08:13:36;;;;;;;31.93;17.00;;;;;;;;;;5092608;28;20486;-70
2022/03/04 08:16:04;;;;;;;30.43;18.43;;;;;;;;;;5092536;28;20451;-71
2022/03/04 08:18:31;;;;;;;32.40;17.87;;;;;;;;;;5092797;28;20490;-70
2022/03/04 08:20:59;;;;;;;28.63;19.17;;;;;;;;;;5096278;28;20493;-70
2022/03/04 08:23:28;;;;;;;28.00;16.90;;;;;;;;;;5096670;28;20515;-71
2022/03/04 08:25:55;;;;;;;26.67;17.53;;;;;;;;;;5096556;28;20456;-71
2022/03/04 08:28:22;;;;;;;31.80;18.30;;;;;;;;;;5096698;28;20818;-70
2022/03/04 08:30:49;;;;;;;28.93;17.67;;;;;;;;;;5096615;28;20450;-70
2022/03/04 08:33:17;;;;;;;28.83;17.40;;;;;;;;;;5096372;28;20486;-70
2022/03/04 08:35:44;;;;;;;34.87;22.10;;;;;;;;;;5096320;28;20478;-70
2022/03/04 08:38:11;;;;;;;32.58;21.23;;;;;;;;;;5095406;28;20457;-70
2022/03/04 08:40:39;;;;;;;36.80;21.93;;;;;;;;;;5096476;28;20322;-70
2022/03/04 08:43:07;;;;;;;29.40;17.80;;;;;;;;;;5096614;28;20942;-70
2022/03/04 08:45:35;;;;;;;46.60;25.10;;;;;;;;;;5096010;28;20548;-70
2022/03/04 08:48:06;;;;;;;24.30;16.40;;;;;;;;;;5096044;28;20486;-70
2022/03/04 08:50:34;;;;;;;24.90;17.17;;;;;;;;;;5096402;28;20946;-70
2022/03/04 08:53:01;;;;;;;25.50;16.80;;;;;;;;;;5096081;28;20999;-70
2022/03/04 08:55:30;;;;;;;28.47;18.27;;;;;;;;;;5096129;28;20459;-70
2022/03/04 08:58:00;;;;;;;29.80;18.07;;;;;;;;;;5095924;28;20561;-70
2022/03/04 09:00:28;;;;;;;33.90;20.55;;;;;;;;;;5095406;28;20533;-71
2022/03/04 09:02:55;;;;;;;44.77;23.20;;;;;;;;;;5095947;28;20209;-70
2022/03/04 09:05:22;;;;;;;30.20;17.03;;;;;;;;;;5096079;28;20939;-70
2022/03/04 09:07:50;;;;;;;36.70;21.77;;;;;;;;;;5095757;28;20478;-70
2022/03/04 09:10:17;;;;;;;26.87;17.33;;;;;;;;;;5095926;28;21065;-71
2022/03/04 09:12:44;;;;;;;32.70;17.43;;;;;;;;;;5095806;28;20482;-70
2022/03/04 09:15:12;;;;;;;29.70;16.90;;;;;;;;;;5095644;28;20454;-70
2022/03/04 09:17:40;;;;;;;26.20;13.57;;;;;;;;;;5095622;28;20470;-70
2022/03/04 09:20:07;;;;;;;23.53;13.93;;;;;;;;;;5095814;28;20880;-70
2022/03/04 09:22:35;;;;;;;22.60;13.60;;;;;;;;;;5095708;28;20458;-70
2022/03/04 09:25:02;;;;;;;20.50;11.37;;;;;;;;;;5095429;28;20442;-70
2022/03/04 09:27:29;;;;;;;17.33;10.93;;;;;;;;;;5095559;28;20843;-71
2022/03/04 09:29:56;;;;;;;17.40;11.60;;;;;;;;;;5095573;28;20459;-70
2022/03/04 09:32:24;;;;;;;14.30;9.77;;;;;;;;;;5095400;28;20451;-70
2022/03/04 09:34:52;;;;;;;28.93;11.20;;;;;;;;;;5095182;28;20453;-70
2022/03/04 09:37:19;;;;;;;26.83;12.53;;;;;;;;;;5095228;28;20967;-71
2022/03/04 09:39:46;;;;;;;24.23;12.97;;;;;;;;;;5095257;28;20487;-71
2022/03/04 09:42:14;;;;;;;20.40;11.90;;;;;;;;;;5095338;28;20458;-70
2022/03/04 09:44:41;;;;;;;16.13;10.27;;;;;;;;;;5094960;28;20823;-70
2022/03/04 09:47:09;;;;;;;11.97;7.70;;;;;;;;;;5094956;28;20470;-70
2022/03/04 09:49:38;;;;;;;9.30;7.37;;;;;;;;;;5095095;28;20454;-70
2022/03/04 09:52:05;;;;;;;9.57;6.00;;;;;;;;;;5094887;28;20530;-70
2022/03/04 09:54:33;;;;;;;13.80;8.70;;;;;;;;;;5094734;28;21091;-70
2022/03/04 09:57:00;;;;;;;13.13;8.57;;;;;;;;;;5094970;28;20474;-70
2022/03/04 09:59:28;;;;;;;8.73;6.33;;;;;;;;;;5094773;28;20443;-70
2022/03/04 10:01:55;;;;;;;10.77;7.43;;;;;;;;;;5094721;28;20461;-70
2022/03/04 10:04:26;;;;;;;14.90;7.80;;;;;;;;;;5094371;28;20454;-71
2022/03/04 10:06:55;;;;;;;11.57;7.67;;;;;;;;;;5094284;28;20466;-70
2022/03/04 10:09:38;;;;;;;13.83;8.07;;;;;;;;;;5094859;28;20450;-71
2022/03/04 10:12:07;;;;;;;13.50;8.17;;;;;;;;;;5094617;28;20458;-70
2022/03/04 10:14:34;;;;;;;12.73;7.50;;;;;;;;;;5094374;28;20482;-70
2022/03/04 10:17:02;;;;;;;11.63;7.73;;;;;;;;;;5094367;28;20466;-70
2022/03/04 10:19:33;;;;;;;12.03;8.90;;;;;;;;;;5094740;28;20454;-70
2022/03/04 10:22:05;;;;;;;12.93;6.50;;;;;;;;;;5094545;28;20442;-70
2022/03/04 10:24:34;;;;;;;8.67;5.90;;;;;;;;;;5094245;28;20486;-70
2022/03/04 10:27:02;;;;;;;12.33;10.00;;;;;;;;;;5094241;28;20479;-70
2022/03/04 10:29:30;;;;;;;17.40;8.20;;;;;;;;;;5094399;28;20465;-70
2022/03/04 10:32:11;;;;;;;9.50;6.03;;;;;;;;;;5094122;28;20495;-70
2022/03/04 10:34:48;;;;;;;11.07;5.63;;;;;;;;;;5094005;28;20855;-71
2022/03/04 10:37:17;;;;;;;7.80;5.70;;;;;;;;;;5093956;28;20470;-70
2022/03/04 10:40:05;;;;;;;9.17;4.37;;;;;;;;;;5094159;28;20505;-70
2022/03/04 10:42:43;;;;;;;7.80;4.00;;;;;;;;;;5093042;28;20453;-70
2022/03/04 10:45:11;;;;;;;8.53;5.37;;;;;;;;;;5094048;28;20803;-70
2022/03/04 10:47:41;;;;;;;25.30;18.33;;;;;;;;;;5093850;28;20829;-70
2022/03/04 10:50:09;;;;;;;9.47;6.17;;;;;;;;;;5093910;28;20455;-70
2022/03/04 10:52:48;;;;;;;27.93;14.67;;;;;;;;;;5093823;28;20821;-70
2022/03/04 10:55:25;;;;;;;6.67;5.10;;;;;;;;;;5094179;28;20819;-70
2022/03/04 10:57:52;;;;;;;45.00;39.60;;;;;;;;;;5093883;28;20470;-69
2022/03/04 11:00:24;;;;;;;21.37;18.10;;;;;;;;;;5093842;28;20451;-69
2022/03/04 11:02:51;;;;;;;48.83;43.50;;;;;;;;;;5093359;28;20447;-70
2022/03/04 11:05:19;;;;;;;117.43;107.47;;;;;;;;;;5093592;28;20458;-70
2022/03/04 11:07:48;;;;;;;8.57;5.90;;;;;;;;;;5093613;28;20467;-69
2022/03/04 11:10:15;;;;;;;6.27;4.50;;;;;;;;;;5093869;28;20454;-69
2022/03/04 11:12:44;;;;;;;11.33;5.70;;;;;;;;;;5091073;28;20454;-70
2022/03/04 11:15:12;;;;;;;4.53;3.60;;;;;;;;;;5091316;28;20492;-70
2022/03/04 11:17:39;;;;;;;7.37;5.03;;;;;;;;;;5091846;28;20849;-70
2022/03/04 11:20:07;;;;;;;7.90;5.77;;;;;;;;;;5092021;28;20459;-70
2022/03/04 11:22:34;;;;;;;8.30;4.73;;;;;;;;;;5092494;28;20463;-69
2022/03/04 11:25:04;;;;;;;9.87;5.87;;;;;;;;;;5092802;28;20943;-70
2022/03/04 11:27:33;;;;;;;12.77;8.17;;;;;;;;;;5093277;28;20470;-70
2022/03/04 11:30:00;;;;;;;8.93;6.60;;;;;;;;;;5092854;28;20514;-69
2022/03/04 11:32:31;;;;;;;9.80;6.57;;;;;;;;;;5093336;28;20447;-70
2022/03/04 11:34:58;;;;;;;15.10;6.43;;;;;;;;;;5092937;28;20498;-70
2022/03/04 11:37:25;;;;;;;8.93;5.97;;;;;;;;;;5093157;28;20474;-70
2022/03/04 11:40:04;;;;;;;9.80;7.37;;;;;;;;;;5093149;28;20807;-70
2022/03/04 11:42:37;;;;;;;11.40;6.73;;;;;;;;;;5093232;28;20446;-70
2022/03/04 11:45:04;;;;;;;10.30;7.87;;;;;;;;;;5092843;28;20454;-69
2022/03/04 11:47:38;;;;;;;8.13;6.00;;;;;;;;;;5092446;28;20483;-70
2022/03/04 11:50:20;;;;;;;46.40;35.13;;;;;;;;;;5093086;28;20454;-70
2022/03/04 11:52:47;;;;;;;7.50;5.13;;;;;;;;;;5092680;28;20932;-70
2022/03/04 11:55:23;;;;;;;9.47;6.43;;;;;;;;;;5097059;28;20502;-70
2022/03/04 11:57:59;;;;;;;7.80;4.63;;;;;;;;;;5097138;28;20814;-70
2022/03/04 12:00:27;;;;;;;6.10;4.83;;;;;;;;;;5097134;28;20509;-70
2022/03/04 12:02:55;;;;;;;15.27;7.60;;;;;;;;;;5096809;28;20439;-70
2022/03/04 12:05:25;;;;;;;7.77;4.33;;;;;;;;;;5096921;28;20877;-70
2022/03/04 12:07:53;;;;;;;6.90;4.63;;;;;;;;;;5096939;28;21021;-70
2022/03/04 12:10:23;;;;;;;7.43;4.87;;;;;;;;;;5097063;28;20973;-70
2022/03/04 12:13:00;;;;;;;6.37;4.47;;;;;;;;;;5096788;28;20853;-69
2022/03/04 12:15:31;;;;;;;12.97;5.37;;;;;;;;;;5096651;28;20482;-70
2022/03/04 12:18:02;;;;;;;10.73;4.23;;;;;;;;;;5096665;28;20831;-70
2022/03/04 12:20:29;;;;;;;7.67;4.73;;;;;;;;;;5096513;28;20541;-71
2022/03/04 12:22:58;;;;;;;10.37;6.27;;;;;;;;;;5096845;28;20482;-70
2022/03/04 12:25:50;;;;;;;9.27;6.10;;;;;;;;;;5096372;28;20485;-70
2022/03/04 12:28:18;;;;;;;8.23;5.00;;;;;;;;;;5096381;28;20493;-70
2022/03/04 12:30:45;;;;;;;7.53;5.63;;;;;;;;;;5096559;28;20458;-69
2022/03/04 12:33:13;;;;;;;7.97;4.10;;;;;;;;;;5096682;28;20450;-70
2022/03/04 12:35:40;;;;;;;11.90;5.30;;;;;;;;;;5096119;28;20837;-70
2022/03/04 12:38:07;;;;;;;9.07;5.70;;;;;;;;;;5096558;28;20473;-70
2022/03/04 12:40:38;;;;;;;9.53;5.50;;;;;;;;;;5096482;28;20453;-70
2022/03/04 12:43:09;;;;;;;7.37;5.00;;;;;;;;;;5096548;28;20457;-70
2022/03/04 12:45:36;;;;;;;9.27;6.00;;;;;;;;;;5096251;28;20489;-70
2022/03/04 12:48:04;;;;;;;9.20;5.03;;;;;;;;;;5096274;28;20482;-70
2022/03/04 12:50:31;;;;;;;10.03;5.53;;;;;;;;;;5096586;28;20450;-70
2022/03/04 12:52:58;;;;;;;9.93;5.50;;;;;;;;;;5096156;28;20457;-70
2022/03/04 12:55:26;;;;;;;12.53;6.10;;;;;;;;;;5095827;28;21006;-72
2022/03/04 12:57:54;;;;;;;10.83;6.97;;;;;;;;;;5096535;28;20454;-71
2022/03/04 13:00:26;;;;;;;13.03;5.97;;;;;;;;;;5096183;28;20455;-72
2022/03/04 13:02:53;;;;;;;12.13;5.07;;;;;;;;;;5095944;28;20489;-71
2022/03/04 13:05:21;;;;;;;6.37;4.00;;;;;;;;;;5095228;28;20490;-70
2022/03/04 13:07:56;;;;;;;7.23;4.43;;;;;;;;;;5095764;28;20565;-71
2022/03/04 13:10:23;;;;;;;7.90;5.17;;;;;;;;;;5096223;28;20450;-71
2022/03/04 13:13:00;;;;;;;8.90;5.13;;;;;;;;;;5095973;28;20964;-70
2022/03/04 13:15:27;;;;;;;8.67;5.53;;;;;;;;;;5095982;28;20482;-70
2022/03/04 13:17:54;;;;;;;7.57;4.57;;;;;;;;;;5095868;28;20474;-71
2022/03/04 13:20:21;;;;;;;9.43;5.30;;;;;;;;;;5095683;28;20490;-71
2022/03/04 13:22:48;;;;;;;7.70;5.03;;;;;;;;;;5095549;28;20450;-70
2022/03/04 13:25:15;;;;;;;8.40;5.60;;;;;;;;;;5095564;28;20439;-70
2022/03/04 13:27:44;;;;;;;8.53;4.73;;;;;;;;;;5095744;28;20470;-71
2022/03/04 13:30:13;;;;;;;8.37;4.70;;;;;;;;;;5096074;28;20503;-70
2022/03/04 13:32:47;;;;;;;13.93;5.23;;;;;;;;;;5095471;28;20443;-70
2022/03/04 13:35:16;;;;;;;8.70;5.40;;;;;;;;;;5095736;28;20543;-70
2022/03/04 13:37:43;;;;;;;11.43;6.57;;;;;;;;;;5095434;28;20510;-71
2022/03/04 13:40:15;;;;;;;8.83;6.37;;;;;;;;;;5095997;28;20451;-70
2022/03/04 13:42:43;;;;;;;8.40;4.40;;;;;;;;;;5095393;28;20442;-69
2022/03/04 13:45:11;;;;;;;6.70;4.87;;;;;;;;;;5095068;28;20485;-69
2022/03/04 13:47:45;;;;;;;6.70;4.20;;;;;;;;;;5094857;28;20864;-70
2022/03/04 13:50:26;;;;;;;5.00;3.13;;;;;;;;;;5095397;28;20501;-69
2022/03/04 13:52:57;;;;;;;4.83;3.37;;;;;;;;;;5094982;28;20450;-69
2022/03/04 13:55:35;;;;;;;6.17;4.80;;;;;;;;;;5094904;28;20509;-69
2022/03/04 13:58:12;;;;;;;3.70;2.90;;;;;;;;;;5094884;28;20935;-70
2022/03/04 14:00:40;;;;;;;5.70;3.70;;;;;;;;;;5094867;28;20928;-69
2022/03/04 14:03:09;;;;;;;8.43;3.60;;;;;;;;;;5094536;28;20454;-69
2022/03/04 14:05:37;;;;;;;4.07;2.77;;;;;;;;;;5094432;28;20447;-69
2022/03/04 14:08:05;;;;;;;6.50;4.20;;;;;;;;;;5094833;28;20463;-68
2022/03/04 14:10:33;;;;;;;8.40;3.80;;;;;;;;;;5094678;28;20454;-69
2022/03/04 14:13:01;;;;;;;6.90;4.30;;;;;;;;;;5094672;28;20455;-69
2022/03/04 14:15:28;;;;;;;6.50;3.90;;;;;;;;;;5094022;28;20486;-69
2022/03/04 14:17:56;;;;;;;26.37;15.77;;;;;;;;;;5093545;28;20895;-68
2022/03/04 14:20:25;;;;;;;7.50;4.63;;;;;;;;;;5094686;28;20451;-69
2022/03/04 14:22:52;;;;;;;6.87;4.60;;;;;;;;;;5094330;28;20939;-70
2022/03/04 14:25:19;;;;;;;8.60;4.10;;;;;;;;;;5094300;28;20478;-69
2022/03/04 14:27:48;;;;;;;10.53;8.03;;;;;;;;;;5094381;28;20466;-70
2022/03/04 14:30:17;;;;;;;14.30;7.00;;;;;;;;;;5094686;28;20447;-69